Aeroporto :
LOGIN :

Iscrizione | Disclaimer

   EN    FR    IT 

 










Sommario :    VFR   VFR Marginale   IFR   IFR Intensivo   IFR Molto Intensivo
Visibilità : 
Base nubi : 
>= 8 km
>= 3000ft
5 / 8 km
1000 / 3000 ft
1500m / 5 km
500 / 1000 ft
800 / 1500m
200 / 500 ft
< 800m
< 200 ft
Simboli :   Temporali  Nebbia  Neve Forte  Precipitazioni Forti  Vento > 20 kt
SIGMETs :   Varie  Temporali  Ghiacco  Turbolenza  Onda orograficha  Ceneri Vulcaniche






- Altitudine del aeroporto : 219 ft
- Codice IATA : DNR


LFRD - Dinard

ULTIMO METAR :
  • 071500Z AUTO 25006KT 210V310 9999 SCT043 19/10 Q1022 NOSIG

METARs OBSOLETI :
  • 071430Z AUTO 25007KT 210V300 CAVOK 18/09 Q1022 NOSIG
  • 071400Z AUTO 31006KT 240V350 9999 FEW045 19/09 Q1022 NOSIG
  • 071330Z AUTO 28007KT 230V320 CAVOK 18/08 Q1022 NOSIG
  • 071300Z AUTO 25008KT 220V290 CAVOK 18/08 Q1023 NOSIG
  • 071230Z AUTO 24008KT CAVOK 18/08 Q1023 NOSIG

TAF TAF LFRD
Valido dal 07 a 12 ore il 08 a 12 ore UTC


071100Z 0712/0812 24008KT 9999 SCT040
TEMPO 0723/0801 -RA SCT008 BKN013
ATIS : +33 2 99 16 81 50



MetMap, La meteo Aeronautica in un colpo d'occhio ! - Copyright ORBIFLY Dicembre 2007 - Disclaimer

ORBIFLY MET'MAP TEAM :

Programmazione e sviluppo : Alexandra Zaïnal
Concezione : Baudouin d'Aumeries
Supporto tecnico e logistico : Manuel Goepfert
Aiuto : Marc-Olivier Méhu
Aiuto per la traduzione : Arnaldo La Scala




FONTI E CREDITI :

   NOAA